createdAt,value
2022-10-15T00:04:53.394Z,34.47
2022-10-15T00:10:15.667Z,36.08
2022-10-15T00:15:38.192Z,34.25
2022-10-15T00:21:00.715Z,35.20
2022-10-15T00:26:38.331Z,35.40
2022-10-15T00:32:00.579Z,35.35
2022-10-15T00:37:23.173Z,36.53
2022-10-15T00:42:45.320Z,36.10
2022-10-15T00:48:08.121Z,36.60
2022-10-15T00:53:30.806Z,35.93
2022-10-15T00:58:53.967Z,36.23
2022-10-15T01:04:19.664Z,37.10
2022-10-15T01:09:43.461Z,38.73
2022-10-15T01:15:31.695Z,36.10
2022-10-15T01:21:35.802Z,36.90
2022-10-15T01:27:13.817Z,39.08
2022-10-15T01:32:43.023Z,37.78
2022-10-15T01:38:16.496Z,39.23
2022-10-15T01:43:52.301Z,37.78
2022-10-15T01:49:17.860Z,39.88
2022-10-15T01:54:42.220Z,36.00
2022-10-15T02:00:04.693Z,38.45
2022-10-15T02:05:33.890Z,39.38
2022-10-15T02:11:09.329Z,40.93
2022-10-15T02:16:42.374Z,39.27
2022-10-15T02:22:15.670Z,39.80
2022-10-15T02:27:40.223Z,40.70
2022-10-15T02:33:13.947Z,43.50
2022-10-15T02:38:38.468Z,44.63
2022-10-15T02:44:01.065Z,40.13
2022-10-15T02:49:23.982Z,41.87
2022-10-15T02:54:46.146Z,40.30
2022-10-15T03:00:09.980Z,40.03
2022-10-15T03:05:32.192Z,40.20
2022-10-15T03:10:55.516Z,41.03
2022-10-15T03:16:21.154Z,40.77
2022-10-15T03:21:43.751Z,41.47
2022-10-15T03:27:06.262Z,40.67
2022-10-15T03:32:29.681Z,39.37
2022-10-15T03:37:52.282Z,39.67
2022-10-15T03:43:14.429Z,39.78
2022-10-15T03:48:37.817Z,41.60
2022-10-15T03:54:00.020Z,43.25
2022-10-15T03:59:22.364Z,41.53
2022-10-15T04:04:44.515Z,43.40
2022-10-15T04:10:06.833Z,43.90
2022-10-15T04:15:30.028Z,44.80
2022-10-15T04:20:52.266Z,43.70
2022-10-15T04:26:16.090Z,43.73
2022-10-15T04:31:38.450Z,42.70
2022-10-15T04:37:00.705Z,43.37
2022-10-15T04:42:22.902Z,43.28
2022-10-15T04:47:45.120Z,41.20
2022-10-15T04:53:07.693Z,41.40
2022-10-15T04:58:29.848Z,41.87
2022-10-15T05:03:55.958Z,43.07
2022-10-15T05:09:18.174Z,40.50
2022-10-15T05:14:42.356Z,42.00
2022-10-15T05:20:04.493Z,39.50
2022-10-15T05:25:27.479Z,40.57
2022-10-15T05:30:50.670Z,40.58
2022-10-15T05:36:27.339Z,39.60
2022-10-15T05:41:49.924Z,39.70
2022-10-15T05:47:12.745Z,38.60
2022-10-15T05:52:34.921Z,39.80
2022-10-15T05:57:57.951Z,39.27
2022-10-15T06:03:22.613Z,37.15
2022-10-15T06:08:44.922Z,44.57
2022-10-15T06:14:07.762Z,51.30
2022-10-15T06:19:30.001Z,53.50
2022-10-15T06:24:52.154Z,48.10
2022-10-15T06:30:15.406Z,43.98
2022-10-15T06:35:40.766Z,41.10
2022-10-15T06:41:03.040Z,39.73
2022-10-15T06:46:25.166Z,38.13
2022-10-15T06:51:47.409Z,38.50
2022-10-15T06:57:09.829Z,37.67
2022-10-15T07:02:31.954Z,36.57
2022-10-15T07:08:00.792Z,37.58
2022-10-15T07:13:23.378Z,35.77
2022-10-15T07:18:46.466Z,36.33
2022-10-15T07:24:09.155Z,36.03
2022-10-15T07:29:31.956Z,35.52
2022-10-15T07:34:54.080Z,35.93
2022-10-15T07:40:16.697Z,36.00
2022-10-15T07:45:39.979Z,36.10
2022-10-15T07:51:10.828Z,33.53
2022-10-15T07:56:34.328Z,32.77
2022-10-15T08:01:56.720Z,31.75
2022-10-15T08:07:18.864Z,30.73
2022-10-15T08:12:41.031Z,31.50
2022-10-15T08:18:03.185Z,30.77
2022-10-15T08:23:29.403Z,29.57
2022-10-15T08:28:52.479Z,30.48
2022-10-15T08:34:16.063Z,29.17
2022-10-15T08:39:38.197Z,29.20
2022-10-15T08:45:07.052Z,30.80
2022-10-15T08:51:11.762Z,29.10
2022-10-15T08:56:37.786Z,28.60
2022-10-15T09:02:19.115Z,28.97
2022-10-15T09:07:58.428Z,27.07
2022-10-15T09:13:34.349Z,27.67
2022-10-15T09:18:58.872Z,27.55
2022-10-15T09:24:27.608Z,26.82
2022-10-15T09:30:07.261Z,27.20
2022-10-15T09:35:56.041Z,25.70
2022-10-15T09:41:52.391Z,26.40
2022-10-15T09:47:19.183Z,26.23
2022-10-15T09:53:11.946Z,25.27
2022-10-15T09:58:56.794Z,26.45
2022-10-15T10:04:33.332Z,25.80
2022-10-15T10:10:05.489Z,24.20
2022-10-15T10:15:38.137Z,26.07
2022-10-15T10:21:14.499Z,27.15
2022-10-15T10:26:38.880Z,27.47
2022-10-15T10:32:01.554Z,29.37
2022-10-15T10:37:25.332Z,27.80
2022-10-15T10:42:52.559Z,28.13
2022-10-15T10:48:33.523Z,28.95
2022-10-15T10:59:19.763Z,27.73
2022-10-15T11:04:45.498Z,29.02
2022-10-15T11:10:21.581Z,29.55
2022-10-15T11:16:16.753Z,28.57
2022-10-15T11:21:59.109Z,28.23
2022-10-15T11:27:41.384Z,28.57
2022-10-15T11:33:14.070Z,28.57
2022-10-15T11:39:23.485Z,31.10
2022-10-15T11:45:24.937Z,31.60
2022-10-15T11:51:19.785Z,31.57
2022-10-15T11:56:47.334Z,27.53
2022-10-15T12:02:14.820Z,28.00
2022-10-15T12:07:53.151Z,27.37
2022-10-15T12:13:44.286Z,27.10
2022-10-15T12:19:28.638Z,26.93
2022-10-15T12:25:00.092Z,27.37
2022-10-15T12:30:39.563Z,29.47
2022-10-15T12:36:11.095Z,29.50
2022-10-15T12:41:47.326Z,27.60
2022-10-15T12:47:10.318Z,26.93
2022-10-15T12:53:07.706Z,26.82
2022-10-15T12:59:00.846Z,28.67
2022-10-15T13:04:23.126Z,29.00
2022-10-15T13:09:49.714Z,25.37
2022-10-15T13:15:16.725Z,26.97
2022-10-15T13:20:57.125Z,26.07
2022-10-15T13:26:40.015Z,26.03
2022-10-15T13:32:04.366Z,26.07
2022-10-15T13:37:32.165Z,25.43
2022-10-15T13:43:09.929Z,25.07
2022-10-15T13:48:36.307Z,24.57
2022-10-15T13:54:01.859Z,23.90
2022-10-15T13:59:27.229Z,26.97
2022-10-15T14:04:51.055Z,26.70
2022-10-15T14:10:15.011Z,27.03
2022-10-15T14:16:07.805Z,25.50
2022-10-15T14:21:35.989Z,34.10
2022-10-15T14:26:59.179Z,27.02
2022-10-15T14:32:54.372Z,26.80
2022-10-15T14:38:25.729Z,26.97
2022-10-15T14:43:49.853Z,27.17
2022-10-15T14:49:13.868Z,27.55
2022-10-15T14:54:44.353Z,24.95
2022-10-15T15:00:10.192Z,25.72
2022-10-15T15:05:36.225Z,25.47
2022-10-15T15:11:01.218Z,24.98
2022-10-15T15:16:25.561Z,24.50
2022-10-15T15:21:48.157Z,25.12
2022-10-15T15:27:10.377Z,23.73
2022-10-15T15:32:33.583Z,24.10
2022-10-15T15:37:55.874Z,22.98
2022-10-15T15:43:22.763Z,22.82
2022-10-15T15:48:45.112Z,24.67
2022-10-15T15:54:10.284Z,25.57
2022-10-15T15:59:32.770Z,26.97
2022-10-15T16:04:55.811Z,22.45
2022-10-15T16:10:19.057Z,22.85
2022-10-15T16:15:43.411Z,21.65
2022-10-15T16:21:06.913Z,22.42
2022-10-15T16:26:30.012Z,22.67
2022-10-15T16:31:52.204Z,21.97
2022-10-15T16:37:14.732Z,21.93
2022-10-15T16:42:37.424Z,21.15
2022-10-15T16:48:00.754Z,21.67
2022-10-15T16:53:23.796Z,19.95
2022-10-15T16:58:46.828Z,20.85
2022-10-15T17:04:13.605Z,19.73
2022-10-15T17:09:36.195Z,20.35
2022-10-15T17:15:02.465Z,20.08
2022-10-15T17:20:28.539Z,20.70
2022-10-15T17:25:50.759Z,20.35
2022-10-15T17:31:19.202Z,20.05
2022-10-15T17:36:45.814Z,20.52
2022-10-15T17:42:09.760Z,20.83
2022-10-15T17:47:32.570Z,20.52
2022-10-15T17:52:57.000Z,19.03
2022-10-15T17:58:20.554Z,19.45
2022-10-15T18:03:44.425Z,19.80
2022-10-15T18:09:08.001Z,20.70
2022-10-15T18:14:31.054Z,20.17
2022-10-15T18:19:53.217Z,19.98
2022-10-15T18:25:15.712Z,22.93
2022-10-15T18:30:38.779Z,24.50
2022-10-15T18:36:00.976Z,21.37
2022-10-15T18:41:28.348Z,21.57
2022-10-15T18:46:52.129Z,22.73
2022-10-15T18:52:21.935Z,22.60
2022-10-15T18:57:39.978Z,22.43
2022-10-15T19:03:02.142Z,23.55
2022-10-15T19:08:24.361Z,22.62
2022-10-15T19:13:47.278Z,23.63
2022-10-15T19:19:09.584Z,23.07
2022-10-15T19:24:33.362Z,22.47
2022-10-15T19:29:56.879Z,25.15
2022-10-15T19:35:19.282Z,23.42
2022-10-15T19:40:48.678Z,26.17
2022-10-15T19:46:10.060Z,25.40
2022-10-15T19:51:32.350Z,28.62
2022-10-15T19:56:55.372Z,28.90
2022-10-15T20:02:18.680Z,31.52
2022-10-15T20:07:41.273Z,32.30
2022-10-15T20:13:03.432Z,31.07
2022-10-15T20:18:26.703Z,26.87
2022-10-15T20:23:50.412Z,26.62
2022-10-15T20:29:14.240Z,28.87
2022-10-15T20:34:40.135Z,27.83
2022-10-15T20:40:03.116Z,32.00
2022-10-15T20:45:27.456Z,31.00
2022-10-15T20:50:51.192Z,30.75
2022-10-15T20:56:13.929Z,29.02
2022-10-15T21:01:36.102Z,28.38
2022-10-15T21:06:58.855Z,27.17
2022-10-15T21:12:21.000Z,26.43
2022-10-15T21:17:43.263Z,27.20
2022-10-15T21:23:06.423Z,27.97
2022-10-15T21:28:28.643Z,28.38
2022-10-15T21:33:51.666Z,26.87
2022-10-15T21:39:16.998Z,28.27
2022-10-15T21:44:39.156Z,30.23
2022-10-15T21:50:01.419Z,29.07
2022-10-15T21:55:27.130Z,31.30
2022-10-15T22:00:47.735Z,29.10
2022-10-15T22:06:11.393Z,30.72
2022-10-15T22:11:43.956Z,29.63
2022-10-15T22:17:06.110Z,31.00
2022-10-15T22:22:28.592Z,30.68
2022-10-15T22:27:51.646Z,30.20
2022-10-15T22:33:14.316Z,30.05
2022-10-15T22:38:36.515Z,28.87
2022-10-15T22:43:59.228Z,28.90
2022-10-15T22:49:24.164Z,29.55
2022-10-15T22:54:46.379Z,28.57
2022-10-15T23:00:10.455Z,29.55
2022-10-15T23:05:32.680Z,29.67
2022-10-15T23:10:54.913Z,28.52
2022-10-15T23:16:36.944Z,29.35
2022-10-15T23:22:07.840Z,31.07
2022-10-15T23:27:30.950Z,31.25
2022-10-15T23:32:53.534Z,32.25
2022-10-15T23:38:16.125Z,30.43
2022-10-15T23:43:38.640Z,31.82
2022-10-15T23:49:00.850Z,32.45
2022-10-15T23:54:25.399Z,31.87
2022-10-15T23:59:47.920Z,31.87
